Jury M — 3EOG2 — position and weather

sailwx.info

Track history (hours):
 
Tides and Currents Weather Stations Pressure Air Temp Water Temp Dewpoint Dewpoint Depression Visibility Wind Speed Wind Dir Waves Ship Positions

Jury M

Last reported at 2014-May-08 13:14 UTC. Time now 2014-Jul-28 22:35 UTC.
Position N 24°29' E 119°30'.
Warning: this ship's position is months out of date.

Length 190 m; draft 10.7 m.

Type: Ship. MMSI: 355723000.

Date/timePositionNaut miles runAvg speedWind from/ knotsBaromVisibWave heightAir tempDewpointWater temp
2014-May-08 13:14N 24°29' E 119°30'913.3
2014-May-08 12:33N 24°22' E 119°24'22 6.9
2014-May-08 09:18N 24°10' E 119°03'8 7.9
2014-May-08 08:14N 24°16' E 118°56'810.8
2014-May-08 07:27N 24°12' E 118°48'11 9.2
2014-May-08 06:14N 24°03' E 118°40'1312.1
2014-May-08 05:11N 23°55' E 118°29'811.8
2014-May-08 04:33N 23°50' E 118°23'1311.6
2014-May-08 03:27N 23°42' E 118°12'1411.2
2014-May-08 02:11N 23°33' E 117°60'710.8
2014-May-08 01:30N 23°28' E 117°54'1110.8
2014-May-08 00:30N 23°22' E 117°45'5811.7
2014-May-07 19:33N 22°50' E 116°52'15510.1
2014-May-07 04:15N 22°10' E 114°10'1 0.1
2014-May-06 17:33N 22°09' E 114°11'233 8.2
2014-May-05 13:15N 20°14' E 110°33'910.1
2014-May-05 12:19N 20°11' E 110°24'7 9.8
2014-May-05 11:33N 20°10' E 110°16'10 9.9
2014-May-05 10:33N 20°08' E 110°06'  
Track history (hours):
 
Tides and Currents Weather Stations Pressure Air Temp Water Temp Dewpoint Dewpoint Depression Visibility Wind Speed Wind Dir Waves Ship Positions

Jury M

Last reported at 2014-May-08 13:14 UTC. Time now 2014-Jul-28 22:35 UTC.
Position N 24°29' E 119°30'.
Warning: this ship's position is months out of date.

Length 190 m; draft 10.7 m.

Type: Ship. MMSI: 355723000.

Date/timePositionNaut miles runAvg speedWind from/ knotsBaromVisibWave heightAir tempDewpointWater temp
2014-May-08 13:14N 24°29' E 119°30'913.3
2014-May-08 12:33N 24°22' E 119°24'22 6.9
2014-May-08 09:18N 24°10' E 119°03'8 7.9
2014-May-08 08:14N 24°16' E 118°56'810.8
2014-May-08 07:27N 24°12' E 118°48'11 9.2
2014-May-08 06:14N 24°03' E 118°40'1312.1
2014-May-08 05:11N 23°55' E 118°29'811.8
2014-May-08 04:33N 23°50' E 118°23'1311.6
2014-May-08 03:27N 23°42' E 118°12'1411.2
2014-May-08 02:11N 23°33' E 117°60'710.8
2014-May-08 01:30N 23°28' E 117°54'1110.8
2014-May-08 00:30N 23°22' E 117°45'5811.7
2014-May-07 19:33N 22°50' E 116°52'15510.1
2014-May-07 04:15N 22°10' E 114°10'1 0.1
2014-May-06 17:33N 22°09' E 114°11'233 8.2
2014-May-05 13:15N 20°14' E 110°33'910.1
2014-May-05 12:19N 20°11' E 110°24'7 9.8
2014-May-05 11:33N 20°10' E 110°16'10 9.9
2014-May-05 10:33N 20°08' E 110°06'  

Dump ship's entire track history